sensor_id;sensor_type;location;lat;lon;timestamp;pressure;altitude;pressure_sealevel;temperature;humidity
13027;BME280;6580;42.680;23.324;2023-04-04T00:02:06;93907.19;;;9.18;100.00
13027;BME280;6580;42.680;23.324;2023-04-04T00:04:51;93912.69;;;9.31;100.00
13027;BME280;6580;42.680;23.324;2023-04-04T00:07:38;93907.72;;;9.28;100.00
13027;BME280;6580;42.680;23.324;2023-04-04T00:10:23;93908.13;;;9.25;100.00
13027;BME280;6580;42.680;23.324;2023-04-04T00:13:10;93903.88;;;9.16;100.00
13027;BME280;6580;42.680;23.324;2023-04-04T00:15:55;93913.00;;;9.00;100.00
13027;BME280;6580;42.680;23.324;2023-04-04T00:18:41;93925.38;;;9.07;100.00
13027;BME280;6580;42.680;23.324;2023-04-04T00:21:27;93922.97;;;8.98;100.00
13027;BME280;6580;42.680;23.324;2023-04-04T00:24:14;93915.47;;;9.01;100.00
13027;BME280;6580;42.680;23.324;2023-04-04T00:27:00;93927.06;;;9.22;100.00
13027;BME280;6580;42.680;23.324;2023-04-04T00:29:45;93924.69;;;9.27;100.00
13027;BME280;6580;42.680;23.324;2023-04-04T00:32:31;93908.28;;;9.24;100.00
13027;BME280;6580;42.680;23.324;2023-04-04T00:35:19;93898.31;;;9.26;100.00
13027;BME280;6580;42.680;23.324;2023-04-04T00:38:05;93897.22;;;9.20;100.00
13027;BME280;6580;42.680;23.324;2023-04-04T00:40:54;93889.50;;;9.11;100.00
13027;BME280;6580;42.680;23.324;2023-04-04T00:43:40;93889.06;;;9.07;100.00
13027;BME280;6580;42.680;23.324;2023-04-04T00:46:28;93884.34;;;8.95;100.00
13027;BME280;6580;42.680;23.324;2023-04-04T00:49:14;93891.31;;;8.96;100.00
13027;BME280;6580;42.680;23.324;2023-04-04T00:51:59;93877.44;;;9.08;100.00
13027;BME280;6580;42.680;23.324;2023-04-04T00:54:45;93885.28;;;9.16;100.00
13027;BME280;6580;42.680;23.324;2023-04-04T00:57:33;93870.53;;;9.28;100.00
13027;BME280;6580;42.680;23.324;2023-04-04T01:00:19;93866.78;;;9.23;100.00
13027;BME280;6580;42.680;23.324;2023-04-04T01:03:07;93863.59;;;9.27;100.00
13027;BME280;6580;42.680;23.324;2023-04-04T01:05:55;93874.22;;;9.27;100.00
13027;BME280;6580;42.680;23.324;2023-04-04T01:08:44;93886.31;;;9.44;100.00
13027;BME280;6580;42.680;23.324;2023-04-04T01:11:31;93874.28;;;9.63;100.00
13027;BME280;6580;42.680;23.324;2023-04-04T01:14:19;93874.75;;;9.66;100.00
13027;BME280;6580;42.680;23.324;2023-04-04T01:17:05;93870.25;;;9.52;100.00
13027;BME280;6580;42.680;23.324;2023-04-04T01:19:59;93872.94;;;9.52;100.00
13027;BME280;6580;42.680;23.324;2023-04-04T01:22:49;93890.34;;;9.40;100.00
13027;BME280;6580;42.680;23.324;2023-04-04T01:25:36;93895.25;;;9.14;100.00
13027;BME280;6580;42.680;23.324;2023-04-04T01:28:22;93889.22;;;9.06;100.00
13027;BME280;6580;42.680;23.324;2023-04-04T01:31:13;93888.31;;;9.13;100.00
13027;BME280;6580;42.680;23.324;2023-04-04T01:34:05;93900.47;;;9.08;100.00
13027;BME280;6580;42.680;23.324;2023-04-04T01:37:00;93893.97;;;9.10;100.00
13027;BME280;6580;42.680;23.324;2023-04-04T01:39:48;93896.09;;;9.15;100.00
13027;BME280;6580;42.680;23.324;2023-04-04T01:42:38;93888.13;;;9.29;100.00
13027;BME280;6580;42.680;23.324;2023-04-04T01:45:25;93878.34;;;9.30;100.00
13027;BME280;6580;42.680;23.324;2023-04-04T01:48:12;93859.91;;;9.28;100.00
13027;BME280;6580;42.680;23.324;2023-04-04T01:50:59;93852.63;;;9.16;100.00
13027;BME280;6580;42.680;23.324;2023-04-04T01:53:53;93837.19;;;9.11;100.00
13027;BME280;6580;42.680;23.324;2023-04-04T01:56:39;93829.34;;;9.04;100.00
13027;BME280;6580;42.680;23.324;2023-04-04T01:59:26;93824.03;;;9.04;100.00
13027;BME280;6580;42.680;23.324;2023-04-04T02:02:12;93824.66;;;8.91;100.00
13027;BME280;6580;42.680;23.324;2023-04-04T02:04:59;93839.03;;;8.97;100.00
13027;BME280;6580;42.680;23.324;2023-04-04T02:07:46;93841.97;;;9.02;100.00
13027;BME280;6580;42.680;23.324;2023-04-04T02:10:32;93848.09;;;9.02;100.00
13027;BME280;6580;42.680;23.324;2023-04-04T02:13:18;93848.22;;;9.08;100.00
13027;BME280;6580;42.680;23.324;2023-04-04T02:16:05;93854.59;;;9.00;100.00
13027;BME280;6580;42.680;23.324;2023-04-04T02:18:51;93839.88;;;8.97;100.00
13027;BME280;6580;42.680;23.324;2023-04-04T02:21:37;93838.84;;;9.12;100.00
13027;BME280;6580;42.680;23.324;2023-04-04T02:24:23;93831.28;;;9.09;100.00
13027;BME280;6580;42.680;23.324;2023-04-04T02:27:08;93824.75;;;8.98;100.00
13027;BME280;6580;42.680;23.324;2023-04-04T02:29:55;93821.91;;;8.85;100.00
13027;BME280;6580;42.680;23.324;2023-04-04T02:32:42;93823.56;;;8.86;100.00
13027;BME280;6580;42.680;23.324;2023-04-04T02:35:27;93819.97;;;8.79;100.00
13027;BME280;6580;42.680;23.324;2023-04-04T02:38:14;93830.31;;;8.74;100.00
13027;BME280;6580;42.680;23.324;2023-04-04T02:40:59;93825.94;;;8.81;100.00
13027;BME280;6580;42.680;23.324;2023-04-04T02:43:45;93824.91;;;8.82;100.00
13027;BME280;6580;42.680;23.324;2023-04-04T02:46:32;93830.53;;;8.87;100.00
13027;BME280;6580;42.680;23.324;2023-04-04T02:49:19;93828.97;;;8.92;100.00
13027;BME280;6580;42.680;23.324;2023-04-04T02:52:05;93833.28;;;8.93;100.00
13027;BME280;6580;42.680;23.324;2023-04-04T02:54:51;93825.13;;;8.95;100.00
13027;BME280;6580;42.680;23.324;2023-04-04T02:57:36;93816.16;;;8.81;100.00
13027;BME280;6580;42.680;23.324;2023-04-04T03:00:22;93822.19;;;8.90;100.00
13027;BME280;6580;42.680;23.324;2023-04-04T03:03:08;93822.56;;;8.87;100.00
13027;BME280;6580;42.680;23.324;2023-04-04T03:05:55;93833.72;;;8.97;100.00
13027;BME280;6580;42.680;23.324;2023-04-04T03:08:40;93829.16;;;9.05;100.00
13027;BME280;6580;42.680;23.324;2023-04-04T03:11:26;93834.81;;;9.16;100.00
13027;BME280;6580;42.680;23.324;2023-04-04T03:14:11;93842.63;;;9.18;100.00
13027;BME280;6580;42.680;23.324;2023-04-04T03:16:56;93840.59;;;9.20;100.00
13027;BME280;6580;42.680;23.324;2023-04-04T03:19:42;93841.72;;;9.25;100.00
13027;BME280;6580;42.680;23.324;2023-04-04T03:22:28;93844.53;;;9.24;100.00
13027;BME280;6580;42.680;23.324;2023-04-04T03:25:14;93833.19;;;9.30;100.00
13027;BME280;6580;42.680;23.324;2023-04-04T03:28:07;93829.59;;;9.37;100.00
13027;BME280;6580;42.680;23.324;2023-04-04T03:30:52;93825.75;;;9.40;100.00
13027;BME280;6580;42.680;23.324;2023-04-04T03:33:38;93808.25;;;9.45;100.00
13027;BME280;6580;42.680;23.324;2023-04-04T03:36:25;93827.69;;;9.31;100.00
13027;BME280;6580;42.680;23.324;2023-04-04T03:39:12;93833.34;;;9.28;100.00
13027;BME280;6580;42.680;23.324;2023-04-04T03:41:58;93840.78;;;9.33;100.00
13027;BME280;6580;42.680;23.324;2023-04-04T03:44:43;93834.84;;;9.31;100.00
13027;BME280;6580;42.680;23.324;2023-04-04T03:47:29;93836.56;;;9.38;100.00
13027;BME280;6580;42.680;23.324;2023-04-04T03:50:22;93847.56;;;9.50;100.00
13027;BME280;6580;42.680;23.324;2023-04-04T03:53:15;93846.44;;;9.59;100.00
13027;BME280;6580;42.680;23.324;2023-04-04T03:56:02;93851.94;;;9.43;100.00
13027;BME280;6580;42.680;23.324;2023-04-04T03:58:48;93856.38;;;9.36;100.00
13027;BME280;6580;42.680;23.324;2023-04-04T04:01:33;93862.31;;;9.23;100.00
13027;BME280;6580;42.680;23.324;2023-04-04T04:04:19;93855.69;;;9.48;100.00
13027;BME280;6580;42.680;23.324;2023-04-04T04:07:06;93848.38;;;9.50;100.00
13027;BME280;6580;42.680;23.324;2023-04-04T04:09:52;93839.66;;;9.56;100.00
13027;BME280;6580;42.680;23.324;2023-04-04T04:12:39;93838.00;;;9.70;100.00
13027;BME280;6580;42.680;23.324;2023-04-04T04:15:24;93844.34;;;9.54;100.00
13027;BME280;6580;42.680;23.324;2023-04-04T04:18:10;93849.00;;;9.52;100.00
13027;BME280;6580;42.680;23.324;2023-04-04T04:20:56;93851.78;;;9.44;100.00
13027;BME280;6580;42.680;23.324;2023-04-04T04:23:46;93850.56;;;9.32;100.00
13027;BME280;6580;42.680;23.324;2023-04-04T04:26:33;93859.75;;;9.44;100.00
13027;BME280;6580;42.680;23.324;2023-04-04T04:29:21;93866.06;;;9.29;100.00
13027;BME280;6580;42.680;23.324;2023-04-04T04:32:06;93866.06;;;9.29;100.00
13027;BME280;6580;42.680;23.324;2023-04-04T04:34:54;93870.94;;;9.25;100.00
13027;BME280;6580;42.680;23.324;2023-04-04T04:37:39;93876.13;;;9.19;100.00
13027;BME280;6580;42.680;23.324;2023-04-04T04:40:24;93875.25;;;9.26;100.00
13027;BME280;6580;42.680;23.324;2023-04-04T04:43:10;93873.13;;;9.36;100.00
13027;BME280;6580;42.680;23.324;2023-04-04T04:45:57;93875.13;;;9.34;100.00
13027;BME280;6580;42.680;23.324;2023-04-04T04:48:43;93881.81;;;9.59;100.00
13027;BME280;6580;42.680;23.324;2023-04-04T04:55:09;93878.03;;;9.68;100.00
13027;BME280;6580;42.680;23.324;2023-04-04T04:57:55;93881.97;;;9.72;100.00
13027;BME280;6580;42.680;23.324;2023-04-04T05:00:41;93888.66;;;9.68;100.00
13027;BME280;6580;42.680;23.324;2023-04-04T05:03:27;93893.91;;;9.62;100.00
13027;BME280;6580;42.680;23.324;2023-04-04T05:06:14;93907.31;;;9.54;100.00
13027;BME280;6580;42.680;23.324;2023-04-04T05:09:01;93908.28;;;9.67;100.00
13027;BME280;6580;42.680;23.324;2023-04-04T05:11:46;93908.47;;;9.66;100.00
13027;BME280;6580;42.680;23.324;2023-04-04T05:14:33;93908.34;;;9.88;100.00
13027;BME280;6580;42.680;23.324;2023-04-04T05:17:20;93908.28;;;9.82;100.00
13027;BME280;6580;42.680;23.324;2023-04-04T05:20:09;93908.91;;;9.98;100.00
13027;BME280;6580;42.680;23.324;2023-04-04T05:22:56;93911.38;;;9.85;100.00
13027;BME280;6580;42.680;23.324;2023-04-04T05:25:42;93917.69;;;9.99;100.00
13027;BME280;6580;42.680;23.324;2023-04-04T05:28:31;93912.97;;;10.09;100.00
13027;BME280;6580;42.680;23.324;2023-04-04T05:31:19;93912.06;;;10.37;100.00
13027;BME280;6580;42.680;23.324;2023-04-04T05:34:04;93907.59;;;10.44;100.00
13027;BME280;6580;42.680;23.324;2023-04-04T05:36:52;93902.97;;;10.31;100.00
13027;BME280;6580;42.680;23.324;2023-04-04T05:39:38;93909.13;;;10.32;100.00
13027;BME280;6580;42.680;23.324;2023-04-04T05:42:23;93919.81;;;10.53;100.00
13027;BME280;6580;42.680;23.324;2023-04-04T05:45:09;93906.41;;;10.67;100.00
13027;BME280;6580;42.680;23.324;2023-04-04T05:47:54;93916.72;;;10.56;100.00
13027;BME280;6580;42.680;23.324;2023-04-04T05:50:43;93906.66;;;10.72;100.00
13027;BME280;6580;42.680;23.324;2023-04-04T05:53:30;93916.88;;;10.48;100.00
13027;BME280;6580;42.680;23.324;2023-04-04T05:56:16;93922.06;;;10.56;100.00
13027;BME280;6580;42.680;23.324;2023-04-04T05:59:01;93918.59;;;10.55;100.00
13027;BME280;6580;42.680;23.324;2023-04-04T06:01:47;93914.66;;;10.72;100.00
13027;BME280;6580;42.680;23.324;2023-04-04T06:04:33;93915.34;;;10.81;100.00
13027;BME280;6580;42.680;23.324;2023-04-04T06:07:22;93913.44;;;10.96;100.00
13027;BME280;6580;42.680;23.324;2023-04-04T06:10:16;93906.88;;;11.19;100.00
13027;BME280;6580;42.680;23.324;2023-04-04T06:13:04;93918.69;;;11.37;100.00
13027;BME280;6580;42.680;23.324;2023-04-04T06:15:50;93909.13;;;11.22;100.00
13027;BME280;6580;42.680;23.324;2023-04-04T06:18:35;93923.13;;;11.30;100.00
13027;BME280;6580;42.680;23.324;2023-04-04T06:21:21;93923.03;;;11.66;100.00
13027;BME280;6580;42.680;23.324;2023-04-04T06:24:07;93910.94;;;11.70;100.00
13027;BME280;6580;42.680;23.324;2023-04-04T06:26:56;93917.94;;;12.11;100.00
13027;BME280;6580;42.680;23.324;2023-04-04T06:29:41;93919.56;;;12.12;100.00
13027;BME280;6580;42.680;23.324;2023-04-04T06:32:27;93923.22;;;11.98;100.00
13027;BME280;6580;42.680;23.324;2023-04-04T06:35:12;93933.38;;;11.82;100.00
13027;BME280;6580;42.680;23.324;2023-04-04T06:37:59;93941.53;;;10.56;100.00
13027;BME280;6580;42.680;23.324;2023-04-04T06:40:45;93963.09;;;9.97;100.00
13027;BME280;6580;42.680;23.324;2023-04-04T06:43:32;93977.47;;;9.74;100.00
13027;BME280;6580;42.680;23.324;2023-04-04T06:46:17;93973.31;;;9.28;100.00
13027;BME280;6580;42.680;23.324;2023-04-04T06:49:04;93986.75;;;9.12;100.00
13027;BME280;6580;42.680;23.324;2023-04-04T06:51:49;93984.28;;;8.88;100.00
13027;BME280;6580;42.680;23.324;2023-04-04T06:54:36;93994.44;;;8.85;100.00
13027;BME280;6580;42.680;23.324;2023-04-04T06:57:21;94002.00;;;8.51;100.00
13027;BME280;6580;42.680;23.324;2023-04-04T07:00:10;94006.13;;;8.98;100.00
13027;BME280;6580;42.680;23.324;2023-04-04T07:02:56;94015.72;;;8.54;100.00
13027;BME280;6580;42.680;23.324;2023-04-04T07:05:42;94031.22;;;8.43;100.00
13027;BME280;6580;42.680;23.324;2023-04-04T07:08:28;94041.03;;;8.65;100.00
13027;BME280;6580;42.680;23.324;2023-04-04T07:11:15;94044.34;;;8.67;100.00
13027;BME280;6580;42.680;23.324;2023-04-04T07:14:00;94048.78;;;8.44;100.00
13027;BME280;6580;42.680;23.324;2023-04-04T07:16:48;94063.88;;;8.43;100.00
13027;BME280;6580;42.680;23.324;2023-04-04T07:19:35;94074.19;;;8.30;100.00
13027;BME280;6580;42.680;23.324;2023-04-04T07:22:22;94081.97;;;7.86;100.00
13027;BME280;6580;42.680;23.324;2023-04-04T07:25:08;94086.47;;;7.53;100.00
13027;BME280;6580;42.680;23.324;2023-04-04T07:27:53;94089.16;;;7.45;100.00
13027;BME280;6580;42.680;23.324;2023-04-04T07:30:39;94099.22;;;7.58;100.00
13027;BME280;6580;42.680;23.324;2023-04-04T07:33:32;94097.44;;;7.42;100.00
13027;BME280;6580;42.680;23.324;2023-04-04T07:36:19;94089.78;;;7.47;100.00
13027;BME280;6580;42.680;23.324;2023-04-04T07:39:04;94094.28;;;7.47;100.00
13027;BME280;6580;42.680;23.324;2023-04-04T07:41:50;94119.59;;;7.49;100.00
13027;BME280;6580;42.680;23.324;2023-04-04T07:44:36;94127.22;;;7.44;100.00
13027;BME280;6580;42.680;23.324;2023-04-04T07:47:21;94135.81;;;7.22;100.00
13027;BME280;6580;42.680;23.324;2023-04-04T07:50:09;94128.22;;;7.19;100.00
13027;BME280;6580;42.680;23.324;2023-04-04T07:52:55;94133.31;;;7.05;100.00
13027;BME280;6580;42.680;23.324;2023-04-04T07:55:42;94135.81;;;7.06;100.00
13027;BME280;6580;42.680;23.324;2023-04-04T07:58:27;94134.16;;;7.29;100.00
13027;BME280;6580;42.680;23.324;2023-04-04T08:01:13;94140.44;;;7.12;100.00
13027;BME280;6580;42.680;23.324;2023-04-04T08:03:59;94145.91;;;7.27;100.00
13027;BME280;6580;42.680;23.324;2023-04-04T08:06:46;94161.28;;;7.31;100.00
13027;BME280;6580;42.680;23.324;2023-04-04T08:09:32;94152.81;;;7.04;100.00
13027;BME280;6580;42.680;23.324;2023-04-04T08:12:19;94161.28;;;7.07;100.00
13027;BME280;6580;42.680;23.324;2023-04-04T08:15:05;94162.13;;;7.16;100.00
13027;BME280;6580;42.680;23.324;2023-04-04T08:17:50;94168.22;;;7.01;100.00
13027;BME280;6580;42.680;23.324;2023-04-04T08:20:36;94166.53;;;6.92;100.00
13027;BME280;6580;42.680;23.324;2023-04-04T08:23:25;94163.13;;;7.23;100.00
13027;BME280;6580;42.680;23.324;2023-04-04T08:26:10;94175.50;;;7.06;100.00
13027;BME280;6580;42.680;23.324;2023-04-04T08:28:56;94179.81;;;7.07;100.00
13027;BME280;6580;42.680;23.324;2023-04-04T08:31:41;94175.03;;;7.27;100.00
13027;BME280;6580;42.680;23.324;2023-04-04T08:34:27;94177.34;;;7.14;100.00
13027;BME280;6580;42.680;23.324;2023-04-04T08:37:12;94192.84;;;7.01;100.00
13027;BME280;6580;42.680;23.324;2023-04-04T08:40:00;94194.72;;;7.08;100.00
13027;BME280;6580;42.680;23.324;2023-04-04T08:42:45;94192.69;;;7.03;100.00
13027;BME280;6580;42.680;23.324;2023-04-04T08:45:32;94194.19;;;7.05;100.00
13027;BME280;6580;42.680;23.324;2023-04-04T08:48:20;94190.38;;;7.00;100.00
13027;BME280;6580;42.680;23.324;2023-04-04T08:51:10;94194.31;;;6.96;100.00
13027;BME280;6580;42.680;23.324;2023-04-04T08:53:58;94210.75;;;7.07;100.00
13027;BME280;6580;42.680;23.324;2023-04-04T08:56:46;94215.19;;;6.91;100.00
13027;BME280;6580;42.680;23.324;2023-04-04T08:59:32;94202.97;;;6.56;100.00
13027;BME280;6580;42.680;23.324;2023-04-04T09:02:22;94217.44;;;6.78;100.00
13027;BME280;6580;42.680;23.324;2023-04-04T09:05:10;94223.75;;;6.85;100.00
13027;BME280;6580;42.680;23.324;2023-04-04T09:07:59;94220.75;;;6.80;100.00
13027;BME280;6580;42.680;23.324;2023-04-04T09:10:45;94219.75;;;6.73;100.00
13027;BME280;6580;42.680;23.324;2023-04-04T09:13:37;94226.59;;;6.58;100.00
13027;BME280;6580;42.680;23.324;2023-04-04T09:16:26;94232.94;;;6.65;100.00
13027;BME280;6580;42.680;23.324;2023-04-04T09:19:12;94236.00;;;6.86;100.00
13027;BME280;6580;42.680;23.324;2023-04-04T09:21:57;94232.25;;;6.63;100.00
13027;BME280;6580;42.680;23.324;2023-04-04T09:24:43;94230.31;;;6.73;100.00
13027;BME280;6580;42.680;23.324;2023-04-04T09:27:31;94230.22;;;6.57;100.00
13027;BME280;6580;42.680;23.324;2023-04-04T09:30:18;94231.50;;;6.78;100.00
13027;BME280;6580;42.680;23.324;2023-04-04T09:33:08;94241.97;;;6.88;100.00
13027;BME280;6580;42.680;23.324;2023-04-04T09:35:57;94242.16;;;7.02;100.00
13027;BME280;6580;42.680;23.324;2023-04-04T09:38:46;94250.56;;;6.98;100.00
13027;BME280;6580;42.680;23.324;2023-04-04T09:41:33;94238.31;;;6.89;100.00
13027;BME280;6580;42.680;23.324;2023-04-04T09:44:19;94242.69;;;7.13;100.00
13027;BME280;6580;42.680;23.324;2023-04-04T09:47:22;94233.78;;;7.22;100.00
13027;BME280;6580;42.680;23.324;2023-04-04T09:50:08;94235.44;;;7.23;100.00
13027;BME280;6580;42.680;23.324;2023-04-04T09:52:56;94241.09;;;7.36;100.00
13027;BME280;6580;42.680;23.324;2023-04-04T09:55:48;94235.75;;;7.28;100.00
13027;BME280;6580;42.680;23.324;2023-04-04T09:58:35;94242.75;;;7.37;100.00
13027;BME280;6580;42.680;23.324;2023-04-04T10:01:22;94240.41;;;7.34;100.00
13027;BME280;6580;42.680;23.324;2023-04-04T10:04:12;94243.78;;;7.44;99.45
13027;BME280;6580;42.680;23.324;2023-04-04T10:06:58;94238.75;;;7.25;100.00
13027;BME280;6580;42.680;23.324;2023-04-04T10:09:45;94243.47;;;7.63;100.00
13027;BME280;6580;42.680;23.324;2023-04-04T10:12:32;94237.69;;;8.23;100.00
13027;BME280;6580;42.680;23.324;2023-04-04T10:15:21;94252.22;;;8.35;96.85
13027;BME280;6580;42.680;23.324;2023-04-04T10:18:08;94244.13;;;8.21;96.27
13027;BME280;6580;42.680;23.324;2023-04-04T10:21:03;94259.38;;;8.19;94.85
13027;BME280;6580;42.680;23.324;2023-04-04T10:23:49;94254.56;;;8.30;94.49
13027;BME280;6580;42.680;23.324;2023-04-04T10:26:36;94264.50;;;7.73;96.19
13027;BME280;6580;42.680;23.324;2023-04-04T10:29:22;94265.22;;;7.17;100.00
13027;BME280;6580;42.680;23.324;2023-04-04T10:32:13;94279.78;;;7.21;100.00
13027;BME280;6580;42.680;23.324;2023-04-04T10:35:02;94289.78;;;7.51;100.00
13027;BME280;6580;42.680;23.324;2023-04-04T10:37:56;94295.81;;;7.20;100.00
13027;BME280;6580;42.680;23.324;2023-04-04T10:40:44;94286.28;;;7.35;100.00
13027;BME280;6580;42.680;23.324;2023-04-04T10:43:34;94295.94;;;7.76;100.00
13027;BME280;6580;42.680;23.324;2023-04-04T10:50:09;94290.78;;;7.42;100.00
13027;BME280;6580;42.680;23.324;2023-04-04T11:14:27;94294.09;;;6.95;100.00
13027;BME280;6580;42.680;23.324;2023-04-04T11:17:13;94314.44;;;7.36;100.00
13027;BME280;6580;42.680;23.324;2023-04-04T11:20:01;94317.97;;;7.19;100.00
13027;BME280;6580;42.680;23.324;2023-04-04T11:23:07;94313.78;;;7.01;100.00
13027;BME280;6580;42.680;23.324;2023-04-04T11:26:08;94327.88;;;7.09;100.00
13027;BME280;6580;42.680;23.324;2023-04-04T11:28:55;94334.66;;;7.03;100.00
13027;BME280;6580;42.680;23.324;2023-04-04T11:31:43;94328.25;;;7.22;100.00
13027;BME280;6580;42.680;23.324;2023-04-04T11:34:30;94335.38;;;7.21;100.00
13027;BME280;6580;42.680;23.324;2023-04-04T11:37:16;94331.41;;;7.17;100.00
13027;BME280;6580;42.680;23.324;2023-04-04T11:40:09;94320.00;;;7.17;100.00
13027;BME280;6580;42.680;23.324;2023-04-04T11:42:56;94329.28;;;7.29;100.00
13027;BME280;6580;42.680;23.324;2023-04-04T11:45:46;94326.81;;;7.27;100.00
13027;BME280;6580;42.680;23.324;2023-04-04T11:48:33;94335.22;;;7.23;100.00
13027;BME280;6580;42.680;23.324;2023-04-04T11:51:19;94327.19;;;7.40;100.00
13027;BME280;6580;42.680;23.324;2023-04-04T11:54:12;94332.47;;;7.40;100.00
13027;BME280;6580;42.680;23.324;2023-04-04T11:57:13;94346.59;;;7.07;100.00
13027;BME280;6580;42.680;23.324;2023-04-04T12:00:00;94336.00;;;7.15;100.00
13027;BME280;6580;42.680;23.324;2023-04-04T12:02:51;94338.50;;;6.84;100.00
13027;BME280;6580;42.680;23.324;2023-04-04T12:05:39;94338.16;;;7.12;100.00
13027;BME280;6580;42.680;23.324;2023-04-04T12:08:27;94324.78;;;7.21;100.00
13027;BME280;6580;42.680;23.324;2023-04-04T12:11:14;94337.09;;;7.38;100.00
13027;BME280;6580;42.680;23.324;2023-04-04T12:14:02;94340.00;;;7.19;100.00
13027;BME280;6580;42.680;23.324;2023-04-04T12:16:48;94344.50;;;6.94;100.00
13027;BME280;6580;42.680;23.324;2023-04-04T12:19:35;94333.06;;;6.60;100.00
13027;BME280;6580;42.680;23.324;2023-04-04T12:22:26;94309.94;;;6.62;100.00
13027;BME280;6580;42.680;23.324;2023-04-04T12:25:12;94342.28;;;7.14;100.00
13027;BME280;6580;42.680;23.324;2023-04-04T12:27:59;94353.53;;;7.08;100.00
13027;BME280;6580;42.680;23.324;2023-04-04T12:30:47;94345.00;;;6.64;100.00
13027;BME280;6580;42.680;23.324;2023-04-04T12:33:32;94353.66;;;6.74;100.00
13027;BME280;6580;42.680;23.324;2023-04-04T12:36:18;94354.09;;;6.87;100.00
13027;BME280;6580;42.680;23.324;2023-04-04T12:39:07;94349.22;;;6.49;100.00
13027;BME280;6580;42.680;23.324;2023-04-04T12:41:57;94366.25;;;6.29;100.00
13027;BME280;6580;42.680;23.324;2023-04-04T12:44:44;94363.50;;;6.38;100.00
13027;BME280;6580;42.680;23.324;2023-04-04T12:47:30;94368.19;;;6.44;100.00
13027;BME280;6580;42.680;23.324;2023-04-04T12:50:29;94372.25;;;6.56;100.00
13027;BME280;6580;42.680;23.324;2023-04-04T12:53:19;94369.69;;;6.47;100.00
13027;BME280;6580;42.680;23.324;2023-04-04T12:56:07;94376.38;;;6.16;100.00
13027;BME280;6580;42.680;23.324;2023-04-04T12:58:59;94372.81;;;6.25;100.00
13027;BME280;6580;42.680;23.324;2023-04-04T13:01:47;94378.91;;;6.00;100.00
13027;BME280;6580;42.680;23.324;2023-04-04T13:04:33;94374.31;;;5.75;100.00
13027;BME280;6580;42.680;23.324;2023-04-04T13:07:25;94381.28;;;6.11;100.00
13027;BME280;6580;42.680;23.324;2023-04-04T13:10:13;94388.53;;;6.09;100.00
13027;BME280;6580;42.680;23.324;2023-04-04T13:13:08;94397.84;;;6.13;100.00
13027;BME280;6580;42.680;23.324;2023-04-04T13:15:58;94382.88;;;6.04;100.00
13027;BME280;6580;42.680;23.324;2023-04-04T13:18:44;94399.28;;;6.07;100.00
13027;BME280;6580;42.680;23.324;2023-04-04T13:21:31;94405.63;;;5.97;100.00
13027;BME280;6580;42.680;23.324;2023-04-04T13:24:20;94409.94;;;5.71;100.00
13027;BME280;6580;42.680;23.324;2023-04-04T13:27:06;94407.03;;;5.92;100.00
13027;BME280;6580;42.680;23.324;2023-04-04T13:29:55;94409.84;;;5.63;100.00
13027;BME280;6580;42.680;23.324;2023-04-04T13:32:44;94417.41;;;5.76;100.00
13027;BME280;6580;42.680;23.324;2023-04-04T13:35:30;94429.59;;;5.86;100.00
13027;BME280;6580;42.680;23.324;2023-04-04T13:38:20;94422.31;;;5.71;100.00
13027;BME280;6580;42.680;23.324;2023-04-04T13:41:06;94425.25;;;5.68;100.00
13027;BME280;6580;42.680;23.324;2023-04-04T13:43:55;94429.59;;;5.59;100.00
13027;BME280;6580;42.680;23.324;2023-04-04T13:46:42;94432.06;;;5.43;100.00
13027;BME280;6580;42.680;23.324;2023-04-04T13:49:27;94440.72;;;5.36;100.00
13027;BME280;6580;42.680;23.324;2023-04-04T13:52:15;94441.66;;;5.44;100.00
13027;BME280;6580;42.680;23.324;2023-04-04T13:55:01;94449.38;;;5.19;100.00
13027;BME280;6580;42.680;23.324;2023-04-04T13:57:49;94462.25;;;5.31;100.00
13027;BME280;6580;42.680;23.324;2023-04-04T14:00:35;94469.47;;;5.29;100.00
13027;BME280;6580;42.680;23.324;2023-04-04T14:03:25;94463.22;;;5.30;100.00
13027;BME280;6580;42.680;23.324;2023-04-04T14:06:11;94469.63;;;5.28;100.00
13027;BME280;6580;42.680;23.324;2023-04-04T14:08:59;94475.88;;;4.91;100.00
13027;BME280;6580;42.680;23.324;2023-04-04T14:11:46;94461.09;;;5.07;100.00
13027;BME280;6580;42.680;23.324;2023-04-04T14:14:32;94469.56;;;5.01;100.00
13027;BME280;6580;42.680;23.324;2023-04-04T14:17:18;94481.59;;;4.67;100.00
13027;BME280;6580;42.680;23.324;2023-04-04T14:20:11;94496.28;;;4.89;100.00
13027;BME280;6580;42.680;23.324;2023-04-04T14:22:59;94491.00;;;4.89;100.00
13027;BME280;6580;42.680;23.324;2023-04-04T14:25:47;94499.75;;;4.80;100.00
13027;BME280;6580;42.680;23.324;2023-04-04T14:28:33;94502.41;;;4.70;100.00
13027;BME280;6580;42.680;23.324;2023-04-04T14:31:19;94506.03;;;4.60;100.00
13027;BME280;6580;42.680;23.324;2023-04-04T14:34:04;94501.19;;;4.65;100.00
13027;BME280;6580;42.680;23.324;2023-04-04T14:36:51;94506.19;;;4.58;100.00
13027;BME280;6580;42.680;23.324;2023-04-04T14:39:36;94506.19;;;4.68;100.00
13027;BME280;6580;42.680;23.324;2023-04-04T14:42:23;94518.38;;;4.69;100.00
13027;BME280;6580;42.680;23.324;2023-04-04T14:45:08;94521.16;;;4.58;100.00
13027;BME280;6580;42.680;23.324;2023-04-04T14:47:55;94525.88;;;4.26;100.00
13027;BME280;6580;42.680;23.324;2023-04-04T14:50:41;94517.00;;;4.36;100.00
13027;BME280;6580;42.680;23.324;2023-04-04T14:53:28;94526.41;;;4.39;100.00
13027;BME280;6580;42.680;23.324;2023-04-04T14:56:16;94530.03;;;4.66;100.00
13027;BME280;6580;42.680;23.324;2023-04-04T14:59:02;94539.91;;;4.55;100.00
13027;BME280;6580;42.680;23.324;2023-04-04T15:01:49;94540.03;;;4.53;100.00
13027;BME280;6580;42.680;23.324;2023-04-04T15:04:34;94537.28;;;4.55;100.00
13027;BME280;6580;42.680;23.324;2023-04-04T15:07:20;94540.19;;;4.71;100.00
13027;BME280;6580;42.680;23.324;2023-04-04T15:10:09;94538.34;;;4.33;100.00
13027;BME280;6580;42.680;23.324;2023-04-04T15:12:56;94548.34;;;4.20;100.00
13027;BME280;6580;42.680;23.324;2023-04-04T15:15:50;94551.66;;;4.13;100.00